sensor_id;sensor_type;location;lat;lon;timestamp;temperature;humidity
1091;DHT22;534;48.704;9.122;2022-12-18T04:00:56;-6.10;79.50
1091;DHT22;534;48.704;9.122;2022-12-18T04:03:26;-6.20;79.10
1091;DHT22;534;48.704;9.122;2022-12-18T04:05:55;-6.10;79.40
1091;DHT22;534;48.704;9.122;2022-12-18T04:08:24;-6.10;78.90
1091;DHT22;534;48.704;9.122;2022-12-18T04:10:51;-6.00;78.80
1091;DHT22;534;48.704;9.122;2022-12-18T04:13:22;-5.90;78.50
1091;DHT22;534;48.704;9.122;2022-12-18T04:15:49;-5.80;78.20
1091;DHT22;534;48.704;9.122;2022-12-18T04:18:18;-5.90;77.70
1091;DHT22;534;48.704;9.122;2022-12-18T04:20:45;-6.50;78.00
1091;DHT22;534;48.704;9.122;2022-12-18T04:23:11;-6.80;79.30
1091;DHT22;534;48.704;9.122;2022-12-18T04:25:38;-7.10;80.50
1091;DHT22;534;48.704;9.122;2022-12-18T04:28:05;-7.20;81.20
1091;DHT22;534;48.704;9.122;2022-12-18T04:30:32;-7.20;80.90
1091;DHT22;534;48.704;9.122;2022-12-18T04:32:58;-7.40;80.30
1091;DHT22;534;48.704;9.122;2022-12-18T04:35:26;-7.60;79.90
1091;DHT22;534;48.704;9.122;2022-12-18T04:37:53;-7.70;79.70
1091;DHT22;534;48.704;9.122;2022-12-18T04:40:20;-8.00;79.70
1091;DHT22;534;48.704;9.122;2022-12-18T04:42:46;-8.20;80.70
1091;DHT22;534;48.704;9.122;2022-12-18T04:45:13;-8.30;82.30
1091;DHT22;534;48.704;9.122;2022-12-18T04:47:40;-8.40;83.60
1091;DHT22;534;48.704;9.122;2022-12-18T04:50:07;-8.30;83.90
1091;DHT22;534;48.704;9.122;2022-12-18T04:52:35;-8.30;83.20
1091;DHT22;534;48.704;9.122;2022-12-18T04:55:02;-8.20;83.10
1091;DHT22;534;48.704;9.122;2022-12-18T04:57:29;-8.20;82.00
1091;DHT22;534;48.704;9.122;2022-12-18T04:59:56;-8.40;82.30
1091;DHT22;534;48.704;9.122;2022-12-18T05:02:22;-8.60;83.00
1091;DHT22;534;48.704;9.122;2022-12-18T05:04:49;-8.50;83.30
1091;DHT22;534;48.704;9.122;2022-12-18T05:07:16;-8.30;82.80
1091;DHT22;534;48.704;9.122;2022-12-18T05:09:44;-8.30;81.60
1091;DHT22;534;48.704;9.122;2022-12-18T05:12:10;-8.10;81.30
1091;DHT22;534;48.704;9.122;2022-12-18T05:14:37;-8.10;80.50
1091;DHT22;534;48.704;9.122;2022-12-18T05:17:04;-7.90;80.40
1091;DHT22;534;48.704;9.122;2022-12-18T05:19:30;-7.60;79.70
1091;DHT22;534;48.704;9.122;2022-12-18T05:21:57;-7.40;78.90
1091;DHT22;534;48.704;9.122;2022-12-18T05:24:24;-7.40;78.00
1091;DHT22;534;48.704;9.122;2022-12-18T05:26:52;-7.40;77.60
1091;DHT22;534;48.704;9.122;2022-12-18T05:29:18;-7.40;77.50
1091;DHT22;534;48.704;9.122;2022-12-18T05:31:45;-7.50;77.20
1091;DHT22;534;48.704;9.122;2022-12-18T05:34:12;-7.30;77.20
1091;DHT22;534;48.704;9.122;2022-12-18T05:36:39;-7.10;76.60
1091;DHT22;534;48.704;9.122;2022-12-18T05:39:05;-7.00;76.60
1091;DHT22;534;48.704;9.122;2022-12-18T05:41:32;-7.00;76.40
1091;DHT22;534;48.704;9.122;2022-12-18T05:44:00;-6.90;76.00
1091;DHT22;534;48.704;9.122;2022-12-18T05:46:27;-6.80;75.50
1091;DHT22;534;48.704;9.122;2022-12-18T05:48:54;-6.70;75.50
1091;DHT22;534;48.704;9.122;2022-12-18T05:51:22;-6.70;75.00
1091;DHT22;534;48.704;9.122;2022-12-18T05:53:48;-6.70;75.50
1091;DHT22;534;48.704;9.122;2022-12-18T05:56:17;-6.90;75.50
1091;DHT22;534;48.704;9.122;2022-12-18T05:58:45;-7.10;76.30
1091;DHT22;534;48.704;9.122;2022-12-18T06:01:15;-7.40;76.30
1091;DHT22;534;48.704;9.122;2022-12-18T06:03:43;-7.70;77.90
1091;DHT22;534;48.704;9.122;2022-12-18T06:06:13;-7.90;79.40
1091;DHT22;534;48.704;9.122;2022-12-18T06:08:40;-7.90;79.90
1091;DHT22;534;48.704;9.122;2022-12-18T06:11:07;-7.60;79.60
1091;DHT22;534;48.704;9.122;2022-12-18T06:13:34;-7.40;78.60
1091;DHT22;534;48.704;9.122;2022-12-18T06:16:02;-7.30;77.30
1091;DHT22;534;48.704;9.122;2022-12-18T06:18:30;-7.10;76.40
1091;DHT22;534;48.704;9.122;2022-12-18T06:20:58;-7.00;76.10
1091;DHT22;534;48.704;9.122;2022-12-18T06:23:26;-7.00;75.70
1091;DHT22;534;48.704;9.122;2022-12-18T06:25:52;-6.90;75.40
1091;DHT22;534;48.704;9.122;2022-12-18T06:28:19;-6.90;75.40
1091;DHT22;534;48.704;9.122;2022-12-18T06:30:47;-6.80;75.50
1091;DHT22;534;48.704;9.122;2022-12-18T06:33:14;-6.80;75.60
1091;DHT22;534;48.704;9.122;2022-12-18T06:35:42;-6.70;75.30
1091;DHT22;534;48.704;9.122;2022-12-18T06:38:09;-6.60;75.10
1091;DHT22;534;48.704;9.122;2022-12-18T06:40:37;-6.50;75.30
1091;DHT22;534;48.704;9.122;2022-12-18T06:43:04;-6.40;75.40
1091;DHT22;534;48.704;9.122;2022-12-18T06:45:31;-6.40;75.30
1091;DHT22;534;48.704;9.122;2022-12-18T06:47:57;-6.30;75.10
1091;DHT22;534;48.704;9.122;2022-12-18T06:50:24;-6.30;75.00
1091;DHT22;534;48.704;9.122;2022-12-18T06:52:52;-6.20;75.10
1091;DHT22;534;48.704;9.122;2022-12-18T06:55:19;-6.10;75.20
1091;DHT22;534;48.704;9.122;2022-12-18T06:57:45;-6.10;75.20
1091;DHT22;534;48.704;9.122;2022-12-18T07:00:13;-6.10;75.00
1091;DHT22;534;48.704;9.122;2022-12-18T07:02:40;-6.00;75.20
1091;DHT22;534;48.704;9.122;2022-12-18T07:05:07;-6.00;75.30
1091;DHT22;534;48.704;9.122;2022-12-18T07:07:34;-5.90;75.00
1091;DHT22;534;48.704;9.122;2022-12-18T07:10:03;-6.00;74.60
1091;DHT22;534;48.704;9.122;2022-12-18T07:12:30;-6.00;74.60
1091;DHT22;534;48.704;9.122;2022-12-18T07:14:56;-5.90;74.90
1091;DHT22;534;48.704;9.122;2022-12-18T07:17:23;-5.90;74.80
1091;DHT22;534;48.704;9.122;2022-12-18T07:19:50;-5.80;75.20
1091;DHT22;534;48.704;9.122;2022-12-18T07:22:16;-5.80;75.20
1091;DHT22;534;48.704;9.122;2022-12-18T07:24:43;-5.80;74.70
1091;DHT22;534;48.704;9.122;2022-12-18T07:27:12;-5.80;74.90
1091;DHT22;534;48.704;9.122;2022-12-18T07:29:39;-5.70;75.20
1091;DHT22;534;48.704;9.122;2022-12-18T07:32:05;-5.70;75.10
1091;DHT22;534;48.704;9.122;2022-12-18T07:34:32;-5.70;75.20
1091;DHT22;534;48.704;9.122;2022-12-18T07:36:59;-5.70;75.50
1091;DHT22;534;48.704;9.122;2022-12-18T07:39:26;-5.60;75.90
1091;DHT22;534;48.704;9.122;2022-12-18T07:41:53;-5.60;76.20
1091;DHT22;534;48.704;9.122;2022-12-18T07:44:35;-5.40;75.90
1091;DHT22;534;48.704;9.122;2022-12-18T07:47:01;-5.30;75.30
1091;DHT22;534;48.704;9.122;2022-12-18T07:49:28;-5.50;76.40
1091;DHT22;534;48.704;9.122;2022-12-18T07:51:56;-5.40;76.80
1091;DHT22;534;48.704;9.122;2022-12-18T07:54:24;-5.30;77.40
1091;DHT22;534;48.704;9.122;2022-12-18T07:56:51;-5.20;77.90
1091;DHT22;534;48.704;9.122;2022-12-18T07:59:18;-5.10;77.50
1091;DHT22;534;48.704;9.122;2022-12-18T08:01:46;-4.90;77.30
1091;DHT22;534;48.704;9.122;2022-12-18T08:04:13;-4.90;76.30
1091;DHT22;534;48.704;9.122;2022-12-18T08:06:39;-4.80;76.70
1091;DHT22;534;48.704;9.122;2022-12-18T08:09:06;-4.80;75.90
1091;DHT22;534;48.704;9.122;2022-12-18T08:11:34;-5.00;76.30
1091;DHT22;534;48.704;9.122;2022-12-18T08:14:00;-4.90;76.80
1091;DHT22;534;48.704;9.122;2022-12-18T08:16:27;-4.80;76.30
1091;DHT22;534;48.704;9.122;2022-12-18T08:18:55;-4.90;75.40
1091;DHT22;534;48.704;9.122;2022-12-18T08:21:25;-5.00;76.50
1091;DHT22;534;48.704;9.122;2022-12-18T08:23:53;-4.60;76.90
1091;DHT22;534;48.704;9.122;2022-12-18T08:26:21;-4.40;76.00
1091;DHT22;534;48.704;9.122;2022-12-18T08:28:48;-4.20;75.30
1091;DHT22;534;48.704;9.122;2022-12-18T08:31:15;-4.10;75.30
1091;DHT22;534;48.704;9.122;2022-12-18T08:33:42;-4.10;74.90
1091;DHT22;534;48.704;9.122;2022-12-18T08:36:10;-4.40;75.70
1091;DHT22;534;48.704;9.122;2022-12-18T08:38:37;-4.60;76.30
1091;DHT22;534;48.704;9.122;2022-12-18T08:41:05;-4.40;77.00
1091;DHT22;534;48.704;9.122;2022-12-18T08:43:32;-4.30;76.60
1091;DHT22;534;48.704;9.122;2022-12-18T08:46:17;-4.20;76.40
1091;DHT22;534;48.704;9.122;2022-12-18T08:48:44;-4.10;76.70
1091;DHT22;534;48.704;9.122;2022-12-18T08:51:12;-3.90;76.10
1091;DHT22;534;48.704;9.122;2022-12-18T08:53:39;-3.50;76.50
1091;DHT22;534;48.704;9.122;2022-12-18T08:56:06;-2.80;75.80
1091;DHT22;534;48.704;9.122;2022-12-18T08:58:33;-2.30;72.90
1091;DHT22;534;48.704;9.122;2022-12-18T09:01:00;-2.30;71.30
1091;DHT22;534;48.704;9.122;2022-12-18T09:03:27;-2.50;71.20
1091;DHT22;534;48.704;9.122;2022-12-18T09:05:54;-2.80;71.30
1091;DHT22;534;48.704;9.122;2022-12-18T09:08:22;-3.10;72.60
1091;DHT22;534;48.704;9.122;2022-12-18T09:10:50;-3.10;73.50
1091;DHT22;534;48.704;9.122;2022-12-18T09:13:18;-3.10;74.10
1091;DHT22;534;48.704;9.122;2022-12-18T09:15:46;-3.10;74.10
1091;DHT22;534;48.704;9.122;2022-12-18T09:18:15;-3.10;74.60
1091;DHT22;534;48.704;9.122;2022-12-18T09:20:42;-3.20;74.50
1091;DHT22;534;48.704;9.122;2022-12-18T09:23:08;-3.40;75.00
1091;DHT22;534;48.704;9.122;2022-12-18T09:25:37;-3.60;75.70
1091;DHT22;534;48.704;9.122;2022-12-18T09:28:06;-3.60;76.90
1091;DHT22;534;48.704;9.122;2022-12-18T09:30:33;-3.40;77.20
1091;DHT22;534;48.704;9.122;2022-12-18T09:33:00;-3.40;77.10
1091;DHT22;534;48.704;9.122;2022-12-18T09:35:27;-3.40;77.40
1091;DHT22;534;48.704;9.122;2022-12-18T09:37:54;-3.50;77.80
1091;DHT22;534;48.704;9.122;2022-12-18T09:40:23;-3.50;77.70
1091;DHT22;534;48.704;9.122;2022-12-18T09:42:55;-3.50;78.00
1091;DHT22;534;48.704;9.122;2022-12-18T09:45:24;-3.40;78.40
1091;DHT22;534;48.704;9.122;2022-12-18T09:47:52;-3.30;78.80
1091;DHT22;534;48.704;9.122;2022-12-18T09:50:24;-3.30;78.70
1091;DHT22;534;48.704;9.122;2022-12-18T09:52:57;-3.50;79.70
1091;DHT22;534;48.704;9.122;2022-12-18T09:55:28;-3.40;80.70
1091;DHT22;534;48.704;9.122;2022-12-18T09:58:05;-3.40;81.50
1091;DHT22;534;48.704;9.122;2022-12-18T10:00:33;-3.30;81.60
1091;DHT22;534;48.704;9.122;2022-12-18T10:03:01;-3.20;81.40
1091;DHT22;534;48.704;9.122;2022-12-18T10:05:37;-3.10;81.50
1091;DHT22;534;48.704;9.122;2022-12-18T10:08:10;-2.60;81.00
1091;DHT22;534;48.704;9.122;2022-12-18T10:10:45;-2.00;80.00
1091;DHT22;534;48.704;9.122;2022-12-18T10:13:22;-1.70;78.10
1091;DHT22;534;48.704;9.122;2022-12-18T10:15:58;-1.50;76.80
1091;DHT22;534;48.704;9.122;2022-12-18T10:18:35;-1.40;77.30
1091;DHT22;534;48.704;9.122;2022-12-18T10:21:10;-1.00;75.90
1091;DHT22;534;48.704;9.122;2022-12-18T10:23:43;-1.80;75.90
1091;DHT22;534;48.704;9.122;2022-12-18T10:26:12;-1.80;77.20
1091;DHT22;534;48.704;9.122;2022-12-18T10:28:41;-1.70;78.10
1091;DHT22;534;48.704;9.122;2022-12-18T10:31:11;-1.60;77.60
1091;DHT22;534;48.704;9.122;2022-12-18T10:33:41;-1.40;77.50
1091;DHT22;534;48.704;9.122;2022-12-18T10:36:08;-1.40;77.50
1091;DHT22;534;48.704;9.122;2022-12-18T10:38:35;-1.00;76.90
1091;DHT22;534;48.704;9.122;2022-12-18T10:41:04;-0.80;76.20
1091;DHT22;534;48.704;9.122;2022-12-18T10:43:32;-0.90;74.70
1091;DHT22;534;48.704;9.122;2022-12-18T10:46:04;-1.40;75.80
1091;DHT22;534;48.704;9.122;2022-12-18T10:48:33;-1.40;77.90
1091;DHT22;534;48.704;9.122;2022-12-18T10:51:00;-1.30;77.00
1091;DHT22;534;48.704;9.122;2022-12-18T10:53:28;-1.40;77.50
1091;DHT22;534;48.704;9.122;2022-12-18T10:55:57;-0.80;77.30
1091;DHT22;534;48.704;9.122;2022-12-18T10:58:28;0.40;75.00
1091;DHT22;534;48.704;9.122;2022-12-18T11:01:12;1.50;70.60
1091;DHT22;534;48.704;9.122;2022-12-18T11:03:40;1.70;68.10
1091;DHT22;534;48.704;9.122;2022-12-18T11:06:10;1.10;69.00
1091;DHT22;534;48.704;9.122;2022-12-18T11:08:37;0.50;70.70
1091;DHT22;534;48.704;9.122;2022-12-18T11:11:14;0.30;73.10
1091;DHT22;534;48.704;9.122;2022-12-18T11:13:51;-0.40;74.10
1091;DHT22;534;48.704;9.122;2022-12-18T11:16:22;-0.90;75.50
1091;DHT22;534;48.704;9.122;2022-12-18T11:18:50;-1.30;77.30
1091;DHT22;534;48.704;9.122;2022-12-18T11:21:16;-1.10;77.60
1091;DHT22;534;48.704;9.122;2022-12-18T11:23:47;-1.40;77.70
1091;DHT22;534;48.704;9.122;2022-12-18T11:26:14;-1.40;78.70
1091;DHT22;534;48.704;9.122;2022-12-18T11:28:44;-1.30;77.90
1091;DHT22;534;48.704;9.122;2022-12-18T11:31:18;-1.20;78.20
1091;DHT22;534;48.704;9.122;2022-12-18T11:33:54;-1.00;78.30
1091;DHT22;534;48.704;9.122;2022-12-18T11:36:23;-0.90;77.50
1091;DHT22;534;48.704;9.122;2022-12-18T11:38:52;-1.10;77.90
1091;DHT22;534;48.704;9.122;2022-12-18T11:41:24;-0.90;77.50
1091;DHT22;534;48.704;9.122;2022-12-18T11:44:15;-0.90;78.40
1091;DHT22;534;48.704;9.122;2022-12-18T11:46:48;-0.70;77.90
1091;DHT22;534;48.704;9.122;2022-12-18T11:49:20;-0.60;77.00
1091;DHT22;534;48.704;9.122;2022-12-18T11:51:51;-0.30;77.30
1091;DHT22;534;48.704;9.122;2022-12-18T11:54:20;0.00;76.20
1091;DHT22;534;48.704;9.122;2022-12-18T11:56:50;0.20;74.30
1091;DHT22;534;48.704;9.122;2022-12-18T11:59:23;0.80;74.70
1091;DHT22;534;48.704;9.122;2022-12-18T12:01:59;1.80;70.80
1091;DHT22;534;48.704;9.122;2022-12-18T12:04:56;2.60;67.70
1091;DHT22;534;48.704;9.122;2022-12-18T12:07:36;3.20;66.70
1091;DHT22;534;48.704;9.122;2022-12-18T12:10:14;2.90;64.20
1091;DHT22;534;48.704;9.122;2022-12-18T12:12:55;3.20;64.10
1091;DHT22;534;48.704;9.122;2022-12-18T12:15:32;3.60;62.70
1091;DHT22;534;48.704;9.122;2022-12-18T12:18:08;4.00;62.40
1091;DHT22;534;48.704;9.122;2022-12-18T12:20:49;4.40;61.00
1091;DHT22;534;48.704;9.122;2022-12-18T12:23:27;4.40;59.50
1091;DHT22;534;48.704;9.122;2022-12-18T12:25:59;4.40;60.10
1091;DHT22;534;48.704;9.122;2022-12-18T12:28:39;4.40;59.40
1091;DHT22;534;48.704;9.122;2022-12-18T12:31:15;4.40;60.10
1091;DHT22;534;48.704;9.122;2022-12-18T12:33:52;5.00;59.60
1091;DHT22;534;48.704;9.122;2022-12-18T12:36:30;5.20;59.60
1091;DHT22;534;48.704;9.122;2022-12-18T12:39:03;4.60;60.20
1091;DHT22;534;48.704;9.122;2022-12-18T12:41:34;4.40;61.80
1091;DHT22;534;48.704;9.122;2022-12-18T12:44:23;4.90;61.10
1091;DHT22;534;48.704;9.122;2022-12-18T12:46:51;4.80;59.70
1091;DHT22;534;48.704;9.122;2022-12-18T12:49:20;4.20;60.20
1091;DHT22;534;48.704;9.122;2022-12-18T12:51:57;4.00;60.70
1091;DHT22;534;48.704;9.122;2022-12-18T12:54:28;4.20;60.50
1091;DHT22;534;48.704;9.122;2022-12-18T12:56:59;4.60;60.20
1091;DHT22;534;48.704;9.122;2022-12-18T12:59:34;4.80;59.60
1091;DHT22;534;48.704;9.122;2022-12-18T13:02:18;4.50;59.00
1091;DHT22;534;48.704;9.122;2022-12-18T13:04:52;4.30;60.00
1091;DHT22;534;48.704;9.122;2022-12-18T13:07:26;3.90;60.60
1091;DHT22;534;48.704;9.122;2022-12-18T13:10:21;3.40;62.20
1091;DHT22;534;48.704;9.122;2022-12-18T13:12:53;3.60;62.40
1091;DHT22;534;48.704;9.122;2022-12-18T13:15:25;4.00;61.90
1091;DHT22;534;48.704;9.122;2022-12-18T13:18:13;4.20;60.00
1091;DHT22;534;48.704;9.122;2022-12-18T13:20:43;4.50;59.20
1091;DHT22;534;48.704;9.122;2022-12-18T13:23:29;4.20;59.40
1091;DHT22;534;48.704;9.122;2022-12-18T13:25:58;4.00;59.60
1091;DHT22;534;48.704;9.122;2022-12-18T13:28:50;3.50;60.80
1091;DHT22;534;48.704;9.122;2022-12-18T13:34:33;2.80;63.60
1091;DHT22;534;48.704;9.122;2022-12-18T13:43:24;2.90;64.00
1091;DHT22;534;48.704;9.122;2022-12-18T13:46:01;2.70;63.90
1091;DHT22;534;48.704;9.122;2022-12-18T13:48:30;2.80;64.30
1091;DHT22;534;48.704;9.122;2022-12-18T13:51:00;2.90;63.70
1091;DHT22;534;48.704;9.122;2022-12-18T13:53:32;3.20;63.30
1091;DHT22;534;48.704;9.122;2022-12-18T13:56:02;3.40;62.90
1091;DHT22;534;48.704;9.122;2022-12-18T13:58:29;3.50;63.00
1091;DHT22;534;48.704;9.122;2022-12-18T14:00:56;3.50;63.10
1091;DHT22;534;48.704;9.122;2022-12-18T14:03:26;3.70;62.80
1091;DHT22;534;48.704;9.122;2022-12-18T14:06:01;3.80;62.50
1091;DHT22;534;48.704;9.122;2022-12-18T14:08:34;3.20;63.00
1091;DHT22;534;48.704;9.122;2022-12-18T14:11:06;2.80;64.00
1091;DHT22;534;48.704;9.122;2022-12-18T14:13:35;2.20;65.00
1091;DHT22;534;48.704;9.122;2022-12-18T14:16:05;2.30;65.50
1091;DHT22;534;48.704;9.122;2022-12-18T14:18:41;2.30;65.30
1091;DHT22;534;48.704;9.122;2022-12-18T14:21:17;1.90;66.30
1091;DHT22;534;48.704;9.122;2022-12-18T14:23:44;1.30;67.50
1091;DHT22;534;48.704;9.122;2022-12-18T14:26:23;0.80;69.30
1091;DHT22;534;48.704;9.122;2022-12-18T14:29:22;0.80;69.70
1091;DHT22;534;48.704;9.122;2022-12-18T14:32:08;0.50;71.00
1091;DHT22;534;48.704;9.122;2022-12-18T14:34:36;0.60;71.30
1091;DHT22;534;48.704;9.122;2022-12-18T14:37:05;0.50;71.50
1091;DHT22;534;48.704;9.122;2022-12-18T14:39:34;0.60;71.30
1091;DHT22;534;48.704;9.122;2022-12-18T14:42:04;0.50;71.30
1091;DHT22;534;48.704;9.122;2022-12-18T14:44:31;0.20;71.90
1091;DHT22;534;48.704;9.122;2022-12-18T14:46:58;0.10;72.60
1091;DHT22;534;48.704;9.122;2022-12-18T14:49:30;0.00;72.80
1091;DHT22;534;48.704;9.122;2022-12-18T14:52:01;-0.30;73.10
1091;DHT22;534;48.704;9.122;2022-12-18T14:54:29;-0.50;74.30
1091;DHT22;534;48.704;9.122;2022-12-18T14:57:05;-0.60;74.80
1091;DHT22;534;48.704;9.122;2022-12-18T14:59:35;-0.60;75.30
1091;DHT22;534;48.704;9.122;2022-12-18T15:02:15;-0.60;75.10
1091;DHT22;534;48.704;9.122;2022-12-18T15:04:45;-0.70;76.00
1091;DHT22;534;48.704;9.122;2022-12-18T15:07:14;-0.50;75.40
1091;DHT22;534;48.704;9.122;2022-12-18T15:10:02;-0.40;74.80
1091;DHT22;534;48.704;9.122;2022-12-18T15:12:33;-0.40;74.80
1091;DHT22;534;48.704;9.122;2022-12-18T15:15:00;-0.30;74.40
1091;DHT22;534;48.704;9.122;2022-12-18T15:17:27;-0.30;74.20
1091;DHT22;534;48.704;9.122;2022-12-18T15:20:01;-0.30;74.20
1091;DHT22;534;48.704;9.122;2022-12-18T15:22:29;-0.30;74.10
1091;DHT22;534;48.704;9.122;2022-12-18T15:24:58;-0.30;74.10
1091;DHT22;534;48.704;9.122;2022-12-18T15:27:32;-0.50;74.70
1091;DHT22;534;48.704;9.122;2022-12-18T15:30:24;-0.60;74.90
1091;DHT22;534;48.704;9.122;2022-12-18T15:32:55;-0.60;74.80
1091;DHT22;534;48.704;9.122;2022-12-18T15:35:39;-0.70;75.20
1091;DHT22;534;48.704;9.122;2022-12-18T15:38:07;-0.70;75.50
1091;DHT22;534;48.704;9.122;2022-12-18T15:40:34;-0.70;75.40
1091;DHT22;534;48.704;9.122;2022-12-18T15:43:05;-0.70;75.10
1091;DHT22;534;48.704;9.122;2022-12-18T15:45:49;-0.70;75.10
1091;DHT22;534;48.704;9.122;2022-12-18T15:48:20;-0.80;76.00
1091;DHT22;534;48.704;9.122;2022-12-18T15:50:48;-0.80;75.40
1091;DHT22;534;48.704;9.122;2022-12-18T15:53:16;-0.80;75.30
1091;DHT22;534;48.704;9.122;2022-12-18T15:55:43;-0.80;75.00
1091;DHT22;534;48.704;9.122;2022-12-18T15:58:28;-0.70;74.80
1091;DHT22;534;48.704;9.122;2022-12-18T16:00:56;-0.80;74.80
1091;DHT22;534;48.704;9.122;2022-12-18T16:03:26;-0.80;74.70
1091;DHT22;534;48.704;9.122;2022-12-18T16:05:53;-0.80;75.00
1091;DHT22;534;48.704;9.122;2022-12-18T16:08:20;-0.90;75.30
1091;DHT22;534;48.704;9.122;2022-12-18T16:10:46;-0.90;75.30
1091;DHT22;534;48.704;9.122;2022-12-18T16:13:16;-0.80;75.50
1091;DHT22;534;48.704;9.122;2022-12-18T16:15:47;-0.90;75.70
1091;DHT22;534;48.704;9.122;2022-12-18T16:18:14;-0.90;76.00
1091;DHT22;534;48.704;9.122;2022-12-18T16:20:41;-0.90;76.70
1091;DHT22;534;48.704;9.122;2022-12-18T16:23:08;-0.90;77.00
1091;DHT22;534;48.704;9.122;2022-12-18T16:25:37;-0.90;77.00
1091;DHT22;534;48.704;9.122;2022-12-18T16:28:04;-0.90;77.10
1091;DHT22;534;48.704;9.122;2022-12-18T16:30:31;-0.90;77.20
1091;DHT22;534;48.704;9.122;2022-12-18T16:33:00;-0.90;77.30
1091;DHT22;534;48.704;9.122;2022-12-18T16:35:27;-0.90;77.30
1091;DHT22;534;48.704;9.122;2022-12-18T16:37:57;-0.90;77.30
1091;DHT22;534;48.704;9.122;2022-12-18T16:40:24;-1.00;77.50
1091;DHT22;534;48.704;9.122;2022-12-18T16:42:51;-1.10;77.90
1091;DHT22;534;48.704;9.122;2022-12-18T16:45:18;-1.10;77.80
1091;DHT22;534;48.704;9.122;2022-12-18T16:47:45;-1.20;78.10
1091;DHT22;534;48.704;9.122;2022-12-18T16:50:13;-1.20;78.40
1091;DHT22;534;48.704;9.122;2022-12-18T16:52:40;-1.20;78.30
1091;DHT22;534;48.704;9.122;2022-12-18T16:55:08;-1.20;78.60
1091;DHT22;534;48.704;9.122;2022-12-18T16:57:35;-1.10;78.60
1091;DHT22;534;48.704;9.122;2022-12-18T17:00:03;-1.00;78.50
1091;DHT22;534;48.704;9.122;2022-12-18T17:02:33;-1.10;78.00
1091;DHT22;534;48.704;9.122;2022-12-18T17:05:02;-1.30;78.80
1091;DHT22;534;48.704;9.122;2022-12-18T17:07:31;-1.20;78.90
1091;DHT22;534;48.704;9.122;2022-12-18T17:09:57;-1.20;78.50
1091;DHT22;534;48.704;9.122;2022-12-18T17:12:24;-1.10;78.90
1091;DHT22;534;48.704;9.122;2022-12-18T17:14:51;-1.30;78.80
1091;DHT22;534;48.704;9.122;2022-12-18T17:17:19;-1.30;79.40
1091;DHT22;534;48.704;9.122;2022-12-18T17:19:46;-1.30;79.30
1091;DHT22;534;48.704;9.122;2022-12-18T17:22:13;-1.40;79.60
1091;DHT22;534;48.704;9.122;2022-12-18T17:24:41;-1.60;80.40
1091;DHT22;534;48.704;9.122;2022-12-18T17:27:08;-1.70;80.90
1091;DHT22;534;48.704;9.122;2022-12-18T17:29:35;-1.90;81.40
1091;DHT22;534;48.704;9.122;2022-12-18T17:32:02;-1.90;81.90
1091;DHT22;534;48.704;9.122;2022-12-18T17:34:29;-1.90;82.20
1091;DHT22;534;48.704;9.122;2022-12-18T17:36:56;-1.90;82.10
1091;DHT22;534;48.704;9.122;2022-12-18T17:39:22;-2.00;82.30
1091;DHT22;534;48.704;9.122;2022-12-18T17:41:50;-1.90;82.70
1091;DHT22;534;48.704;9.122;2022-12-18T17:44:17;-1.80;81.80
1091;DHT22;534;48.704;9.122;2022-12-18T17:46:44;-1.80;81.50
1091;DHT22;534;48.704;9.122;2022-12-18T17:49:12;-1.90;81.60
1091;DHT22;534;48.704;9.122;2022-12-18T17:51:39;-2.00;82.10
1091;DHT22;534;48.704;9.122;2022-12-18T17:54:07;-1.80;82.80
1091;DHT22;534;48.704;9.122;2022-12-18T17:56:34;-1.70;82.20
1091;DHT22;534;48.704;9.122;2022-12-18T17:59:02;-1.80;82.00
1091;DHT22;534;48.704;9.122;2022-12-18T18:01:29;-1.70;81.80
1091;DHT22;534;48.704;9.122;2022-12-18T18:03:55;-1.70;81.60
1091;DHT22;534;48.704;9.122;2022-12-18T18:06:24;-1.50;81.40
1091;DHT22;534;48.704;9.122;2022-12-18T18:08:52;-1.40;80.90
1091;DHT22;534;48.704;9.122;2022-12-18T18:11:21;-1.30;80.60
1091;DHT22;534;48.704;9.122;2022-12-18T18:14:16;-1.40;79.80
1091;DHT22;534;48.704;9.122;2022-12-18T18:16:45;-1.50;80.50
1091;DHT22;534;48.704;9.122;2022-12-18T18:19:13;-1.70;80.80
1091;DHT22;534;48.704;9.122;2022-12-18T18:21:41;-1.70;82.30
1091;DHT22;534;48.704;9.122;2022-12-18T18:24:09;-1.60;81.60
1091;DHT22;534;48.704;9.122;2022-12-18T18:26:38;-1.70;82.10
1091;DHT22;534;48.704;9.122;2022-12-18T18:29:07;-1.50;82.00
1091;DHT22;534;48.704;9.122;2022-12-18T18:31:34;-1.40;81.50
1091;DHT22;534;48.704;9.122;2022-12-18T18:34:02;-1.30;81.00
1091;DHT22;534;48.704;9.122;2022-12-18T18:36:29;-1.30;80.90
1091;DHT22;534;48.704;9.122;2022-12-18T18:38:58;-1.20;80.90
1091;DHT22;534;48.704;9.122;2022-12-18T18:41:25;-1.20;80.30
1091;DHT22;534;48.704;9.122;2022-12-18T18:43:54;-1.30;80.50
1091;DHT22;534;48.704;9.122;2022-12-18T18:46:23;-1.30;80.90
1091;DHT22;534;48.704;9.122;2022-12-18T18:48:50;-1.20;80.90
1091;DHT22;534;48.704;9.122;2022-12-18T18:51:18;-1.20;80.20
1091;DHT22;534;48.704;9.122;2022-12-18T18:53:46;-1.50;81.10
1091;DHT22;534;48.704;9.122;2022-12-18T18:56:16;-1.30;81.70
1091;DHT22;534;48.704;9.122;2022-12-18T18:58:43;-1.30;80.90
1091;DHT22;534;48.704;9.122;2022-12-18T19:01:11;-1.40;80.80
1091;DHT22;534;48.704;9.122;2022-12-18T19:03:40;-1.40;81.00
1091;DHT22;534;48.704;9.122;2022-12-18T19:06:07;-1.80;81.90
1091;DHT22;534;48.704;9.122;2022-12-18T19:08:36;-1.90;83.20
1091;DHT22;534;48.704;9.122;2022-12-18T19:11:05;-1.90;83.60
1091;DHT22;534;48.704;9.122;2022-12-18T19:13:53;-2.00;83.70
1091;DHT22;534;48.704;9.122;2022-12-18T19:16:20;-2.00;84.40
1091;DHT22;534;48.704;9.122;2022-12-18T19:18:48;-2.20;85.00
1091;DHT22;534;48.704;9.122;2022-12-18T19:21:15;-2.20;85.70
1091;DHT22;534;48.704;9.122;2022-12-18T19:23:42;-2.20;86.10
1091;DHT22;534;48.704;9.122;2022-12-18T19:26:10;-2.10;86.20
1091;DHT22;534;48.704;9.122;2022-12-18T19:28:37;-2.10;85.80
1091;DHT22;534;48.704;9.122;2022-12-18T19:31:06;-2.20;86.00
1091;DHT22;534;48.704;9.122;2022-12-18T19:33:35;-2.10;86.10
1091;DHT22;534;48.704;9.122;2022-12-18T19:36:13;-2.20;86.10
1091;DHT22;534;48.704;9.122;2022-12-18T19:38:40;-2.10;86.10
1091;DHT22;534;48.704;9.122;2022-12-18T19:41:07;-1.90;86.20
1091;DHT22;534;48.704;9.122;2022-12-18T19:43:35;-1.70;85.40
1091;DHT22;534;48.704;9.122;2022-12-18T19:46:03;-1.70;84.60
1091;DHT22;534;48.704;9.122;2022-12-18T19:48:31;-2.00;84.90
1091;DHT22;534;48.704;9.122;2022-12-18T19:51:03;-2.00;85.40
1091;DHT22;534;48.704;9.122;2022-12-18T19:53:31;-2.10;85.50
1091;DHT22;534;48.704;9.122;2022-12-18T19:56:02;-2.20;85.80
1091;DHT22;534;48.704;9.122;2022-12-18T19:58:29;-2.00;86.50
1091;DHT22;534;48.704;9.122;2022-12-18T20:00:56;-2.00;85.60
1091;DHT22;534;48.704;9.122;2022-12-18T20:03:23;-2.00;85.60
1091;DHT22;534;48.704;9.122;2022-12-18T20:05:50;-1.90;85.90
1091;DHT22;534;48.704;9.122;2022-12-18T20:08:17;-1.90;85.80
1091;DHT22;534;48.704;9.122;2022-12-18T20:10:45;-1.90;85.90
1091;DHT22;534;48.704;9.122;2022-12-18T20:13:13;-1.80;85.60
1091;DHT22;534;48.704;9.122;2022-12-18T20:15:40;-1.80;85.90
1091;DHT22;534;48.704;9.122;2022-12-18T20:18:07;-1.70;86.00
1091;DHT22;534;48.704;9.122;2022-12-18T20:20:34;-1.60;85.60
1091;DHT22;534;48.704;9.122;2022-12-18T20:23:01;-1.50;85.50
1091;DHT22;534;48.704;9.122;2022-12-18T20:25:29;-1.60;85.20
1091;DHT22;534;48.704;9.122;2022-12-18T20:27:57;-1.60;85.40
1091;DHT22;534;48.704;9.122;2022-12-18T20:30:23;-1.70;85.60
1091;DHT22;534;48.704;9.122;2022-12-18T20:32:51;-1.80;85.90
1091;DHT22;534;48.704;9.122;2022-12-18T20:35:17;-1.90;86.50
1091;DHT22;534;48.704;9.122;2022-12-18T20:37:44;-1.80;86.90
1091;DHT22;534;48.704;9.122;2022-12-18T20:40:11;-1.60;86.40
1091;DHT22;534;48.704;9.122;2022-12-18T20:42:38;-1.40;86.10
1091;DHT22;534;48.704;9.122;2022-12-18T20:45:07;-1.30;85.30
1091;DHT22;534;48.704;9.122;2022-12-18T20:47:34;-1.30;84.60